Time;durP1;ratioP1;P1;durP2;ratioP2;P2;SDS_P1;SDS_P2;PMS_P1;PMS_P2;Temp;Humidity;BMP_temperature;BMP_pressure;BME280_temperature;BME280_humidity;BME280_pressure;Samples;Min_cycle;Max_cycle;Signal;HPM_P1;HPM_P2
2022/07/13 00:00:39;;;;;;;;;;;19.90;99.90;;;;;;5012380;28;19924;-73
2022/07/13 00:03:05;;;;;;;;;;;19.90;99.90;;;;;;5014602;28;19932;-73
2022/07/13 00:05:30;;;;;;;;;;;19.90;99.90;;;;;;5018489;28;19917;-72
2022/07/13 00:07:56;;;;;;;;;;;19.90;99.90;;;;;;5023698;28;19933;-71
2022/07/13 00:10:22;;;;;;;;;;;19.90;99.90;;;;;;4994553;28;19921;-72
2022/07/13 00:12:47;;;;;;;;;;;19.90;99.90;;;;;;5023527;28;19917;-73
2022/07/13 00:15:13;;;;;;;;;;;19.90;99.90;;;;;;5023164;28;19940;-72
2022/07/13 00:17:38;;;;;;;;;;;19.90;99.90;;;;;;5017838;28;19928;-72
2022/07/13 00:20:04;;;;;;;;;;;19.90;99.90;;;;;;5023939;28;19933;-72
2022/07/13 00:22:31;;;;;;;;;;;19.90;99.90;;;;;;5015246;28;19917;-72
2022/07/13 00:24:56;;;;;;;;;;;19.80;99.90;;;;;;5012235;28;19970;-72
2022/07/13 00:27:22;;;;;;;;;;;19.90;99.90;;;;;;5015909;28;19963;-72
2022/07/13 00:29:48;;;;;;;;;;;19.90;99.90;;;;;;5010681;28;19928;-72
2022/07/13 00:32:13;;;;;;;;;;;19.90;99.90;;;;;;5016013;28;19925;-73
2022/07/13 00:34:39;;;;;;;;;;;19.90;99.90;;;;;;5012501;28;19935;-73
2022/07/13 00:37:05;;;;;;;;;;;19.90;99.90;;;;;;5024753;28;19943;-73
2022/07/13 00:39:30;;;;;;;;;;;20.00;99.90;;;;;;5013374;28;19921;-72
2022/07/13 00:41:56;;;;;;;;;;;19.90;99.90;;;;;;5012224;28;20615;-72
2022/07/13 00:44:22;;;;;;;;;;;20.00;99.90;;;;;;5023843;28;19925;-71
2022/07/13 00:46:54;;;;;;;;;;;19.90;99.90;;;;;;5014479;28;19924;-72
2022/07/13 00:49:20;;;;;;;;;;;19.90;99.90;;;;;;5012861;28;20015;-72
2022/07/13 00:51:45;;;;;;;;;;;19.90;99.90;;;;;;5017487;28;19925;-72
2022/07/13 00:54:11;;;;;;;;;;;20.00;99.90;;;;;;5017438;28;19983;-71
2022/07/13 00:56:37;;;;;;;;;;;20.00;99.90;;;;;;5026717;28;19928;-72
2022/07/13 00:59:04;;;;;;;;;;;20.00;99.90;;;;;;5013666;28;19916;-73
2022/07/13 01:01:30;;;;;;;;;;;20.10;99.90;;;;;;5022104;28;19920;-72
2022/07/13 01:03:56;;;;;;;;;;;20.70;99.90;;;;;;5024005;28;19932;-72
2022/07/13 01:06:22;;;;;;;;;;;20.00;99.90;;;;;;5019233;28;19917;-73
2022/07/13 01:08:48;;;;;;;;;;;20.10;99.90;;;;;;5025911;28;19917;-72
2022/07/13 01:11:14;;;;;;;;;;;20.10;99.90;;;;;;5014452;28;19923;-72
2022/07/13 01:13:40;;;;;;;;;;;20.10;99.90;;;;;;5015832;28;19988;-72
2022/07/13 01:16:08;;;;;;;;;;;20.10;99.90;;;;;;5019872;28;19975;-73
2022/07/13 01:18:33;;;;;;;;;;;20.00;99.90;;;;;;5011192;28;19917;-72
2022/07/13 01:21:00;;;;;;;;;;;20.00;99.90;;;;;;5017028;28;19974;-73
2022/07/13 01:23:26;;;;;;;;;;;20.00;99.90;;;;;;5017378;28;19924;-72
2022/07/13 01:25:56;;;;;;;;;;;20.00;99.90;;;;;;5020280;28;19929;-73
2022/07/13 01:28:24;;;;;;;;;;;20.00;99.90;;;;;;5027899;28;19924;-72
2022/07/13 01:30:50;;;;;;;;;;;20.00;99.90;;;;;;5011948;28;19928;-72
2022/07/13 01:33:16;;;;;;;;;;;20.00;99.90;;;;;;5015813;28;19920;-72
2022/07/13 01:35:41;;;;;;;;;;;20.00;99.90;;;;;;5016154;28;19921;-72
2022/07/13 01:38:07;;;;;;;;;;;20.00;99.90;;;;;;5020430;28;19975;-72
2022/07/13 01:40:33;;;;;;;;;;;20.00;99.90;;;;;;5018318;28;20015;-73
2022/07/13 01:42:58;;;;;;;;;;;20.00;99.90;;;;;;5015299;28;20030;-73
2022/07/13 01:45:24;;;;;;;;;;;19.90;99.90;;;;;;5008861;28;19917;-73
2022/07/13 01:47:52;;;;;;;;;;;19.90;99.90;;;;;;5010520;28;19917;-73
2022/07/13 01:50:19;;;;;;;;;;;19.90;99.90;;;;;;5011896;28;20016;-72
2022/07/13 01:52:45;;;;;;;;;;;19.90;99.90;;;;;;5011304;28;19921;-71
2022/07/13 01:55:12;;;;;;;;;;;19.80;99.90;;;;;;5008181;28;20400;-72
2022/07/13 01:57:38;;;;;;;;;;;19.80;99.90;;;;;;5010989;28;19921;-72
2022/07/13 02:00:06;;;;;;;;;;;19.80;99.90;;;;;;5020493;28;19940;-73
2022/07/13 02:02:31;;;;;;;;;;;19.80;99.90;;;;;;5008295;28;19944;-72
2022/07/13 02:04:57;;;;;;;;;;;19.80;99.90;;;;;;5013792;28;19925;-73
2022/07/13 02:07:22;;;;;;;;;;;19.90;99.90;;;;;;5013474;28;19987;-73
2022/07/13 02:09:49;;;;;;;;;;;19.90;99.90;;;;;;5013661;28;19925;-73
2022/07/13 02:12:15;;;;;;;;;;;19.90;99.90;;;;;;5013420;28;20003;-72
2022/07/13 02:14:40;;;;;;;;;;;19.90;99.90;;;;;;5012940;28;19971;-72
2022/07/13 02:17:06;;;;;;;;;;;19.90;99.90;;;;;;5008952;28;19917;-72
2022/07/13 02:19:31;;;;;;;;;;;20.00;99.90;;;;;;5010679;28;19925;-72
2022/07/13 02:21:57;;;;;;;;;;;20.00;99.90;;;;;;4997562;28;19928;-72
2022/07/13 02:24:22;;;;;;;;;;;20.90;99.90;;;;;;5015123;28;19989;-73
2022/07/13 02:26:49;;;;;;;;;;;20.00;99.90;;;;;;5013934;28;19923;-73
2022/07/13 02:29:14;;;;;;;;;;;20.10;99.90;;;;;;5021181;28;20352;-73
2022/07/13 02:31:40;;;;;;;;;;;20.00;99.90;;;;;;5015195;28;19921;-72
2022/07/13 02:34:05;;;;;;;;;;;20.00;99.90;;;;;;5017329;28;19921;-73
2022/07/13 02:36:31;;;;;;;;;;;20.00;99.90;;;;;;5011904;28;19916;-73
2022/07/13 02:38:56;;;;;;;;;;;20.10;99.90;;;;;;5009981;28;20038;-72
2022/07/13 02:41:22;;;;;;;;;;;20.10;99.90;;;;;;5006100;28;19954;-73
2022/07/13 02:43:48;;;;;;;;;;;20.00;99.90;;;;;;5009047;28;20943;-73
2022/07/13 02:46:14;;;;;;;;;;;20.00;99.90;;;;;;5008332;28;19917;-73
2022/07/13 02:48:39;;;;;;;;;;;20.00;99.90;;;;;;5007356;28;20346;-72
2022/07/13 02:51:05;;;;;;;;;;;20.00;99.90;;;;;;5005760;28;20346;-72
2022/07/13 02:53:30;;;;;;;;;;;20.00;99.90;;;;;;5011476;28;20332;-72
2022/07/13 02:55:56;;;;;;;;;;;20.00;99.90;;;;;;5008846;28;20422;-73
2022/07/13 02:58:21;;;;;;;;;;;19.90;99.90;;;;;;5022378;28;20303;-73
2022/07/13 03:00:47;;;;;;;;;;;20.00;99.90;;;;;;5014776;28;19971;-73
2022/07/13 03:03:13;;;;;;;;;;;20.00;99.90;;;;;;5015328;28;20291;-73
2022/07/13 03:05:38;;;;;;;;;;;20.10;99.90;;;;;;5016288;28;19931;-72
2022/07/13 03:08:04;;;;;;;;;;;20.00;99.90;;;;;;5020613;28;19925;-71
2022/07/13 03:10:31;;;;;;;;;;;20.00;99.90;;;;;;5019239;28;20387;-72
2022/07/13 03:12:56;;;;;;;;;;;20.00;99.90;;;;;;5026366;28;19966;-72
2022/07/13 03:15:22;;;;;;;;;;;20.00;99.90;;;;;;5021637;28;20334;-72
2022/07/13 03:17:48;;;;;;;;;;;20.10;99.90;;;;;;5011677;28;19924;-72
2022/07/13 03:20:13;;;;;;;;;;;20.00;99.90;;;;;;5025404;28;20016;-73
2022/07/13 03:22:39;;;;;;;;;;;20.10;99.90;;;;;;5017604;28;20287;-73
2022/07/13 03:25:05;;;;;;;;;;;20.10;99.90;;;;;;5017357;28;19963;-73
2022/07/13 03:27:30;;;;;;;;;;;20.10;99.90;;;;;;5027872;28;20342;-72
2022/07/13 03:29:56;;;;;;;;;;;20.10;99.90;;;;;;5016322;28;20441;-73
2022/07/13 03:32:22;;;;;;;;;;;20.10;99.90;;;;;;5019199;28;20414;-72
2022/07/13 03:34:47;;;;;;;;;;;20.10;99.90;;;;;;5017272;28;20509;-73
2022/07/13 03:37:13;;;;;;;;;;;20.00;99.90;;;;;;5012539;28;20298;-72
2022/07/13 03:39:39;;;;;;;;;;;20.00;99.90;;;;;;5027748;28;20423;-72
2022/07/13 03:42:04;;;;;;;;;;;20.00;99.90;;;;;;5027918;28;20371;-73
2022/07/13 03:44:30;;;;;;;;;;;20.00;99.90;;;;;;5022854;28;19991;-71
2022/07/13 03:46:56;;;;;;;;;;;20.00;99.90;;;;;;5013044;28;20387;-73
2022/07/13 03:49:21;;;;;;;;;;;20.00;99.90;;;;;;5014366;28;19921;-73
2022/07/13 03:51:48;;;;;;;;;;;19.90;99.90;;;;;;5024586;28;19925;-73
2022/07/13 03:54:14;;;;;;;;;;;20.00;99.90;;;;;;5011496;28;19917;-72
2022/07/13 03:56:39;;;;;;;;;;;19.90;99.90;;;;;;5013269;28;19931;-72
2022/07/13 03:59:05;;;;;;;;;;;20.00;99.90;;;;;;5019191;28;20401;-72
2022/07/13 04:01:31;;;;;;;;;;;19.90;99.90;;;;;;5010754;28;19925;-73
2022/07/13 04:03:58;;;;;;;;;;;20.00;99.90;;;;;;5013966;28;19963;-73
2022/07/13 04:06:24;;;;;;;;;;;19.90;99.90;;;;;;5008020;28;22352;-73
2022/07/13 04:08:50;;;;;;;;;;;20.00;99.90;;;;;;5017163;28;20359;-73
2022/07/13 04:11:16;;;;;;;;;;;20.00;99.90;;;;;;5014741;28;20405;-73
2022/07/13 04:13:42;;;;;;;;;;;20.00;99.90;;;;;;5026424;28;19921;-72
2022/07/13 04:16:07;;;;;;;;;;;20.00;99.90;;;;;;5012043;28;19917;-72
2022/07/13 04:18:33;;;;;;;;;;;20.00;99.90;;;;;;5011701;28;19917;-73
2022/07/13 04:20:59;;;;;;;;;;;20.00;99.90;;;;;;5009890;28;19921;-73
2022/07/13 04:23:25;;;;;;;;;;;20.70;99.90;;;;;;5012878;28;20602;-72
2022/07/13 04:25:50;;;;;;;;;;;20.10;99.90;;;;;;5012335;28;19921;-73
2022/07/13 04:28:16;;;;;;;;;;;20.10;99.90;;;;;;5009171;28;19943;-73
2022/07/13 04:30:41;;;;;;;;;;;20.10;99.90;;;;;;5024861;28;20397;-72
2022/07/13 04:33:07;;;;;;;;;;;20.10;99.90;;;;;;5016385;28;19924;-73
2022/07/13 04:35:33;;;;;;;;;;;20.10;99.90;;;;;;5024764;28;19927;-73
2022/07/13 04:37:58;;;;;;;;;;;20.10;99.90;;;;;;5014278;28;19917;-72
2022/07/13 04:40:24;;;;;;;;;;;20.10;99.90;;;;;;5015425;28;19917;-73
2022/07/13 04:42:49;;;;;;;;;;;20.10;99.90;;;;;;5020851;28;19979;-73
2022/07/13 04:45:18;;;;;;;;;;;20.10;99.90;;;;;;5013444;28;20303;-72
2022/07/13 04:47:44;;;;;;;;;;;20.20;99.90;;;;;;5012981;28;19967;-72
2022/07/13 04:50:09;;;;;;;;;;;20.10;99.90;;;;;;5010944;28;20387;-72
2022/07/13 04:52:35;;;;;;;;;;;20.20;99.90;;;;;;4996279;28;19932;-73
2022/07/13 04:55:01;;;;;;;;;;;20.20;99.90;;;;;;5010333;28;19928;-73
2022/07/13 04:57:26;;;;;;;;;;;20.20;99.90;;;;;;5022984;28;19927;-73
2022/07/13 04:59:51;;;;;;;;;;;20.20;99.90;;;;;;5013144;28;20010;-73
2022/07/13 05:02:17;;;;;;;;;;;20.30;99.90;;;;;;5013772;28;19925;-73
2022/07/13 05:04:43;;;;;;;;;;;20.30;99.90;;;;;;5025076;28;19925;-72
2022/07/13 05:07:08;;;;;;;;;;;20.30;99.90;;;;;;5011306;28;19924;-73
2022/07/13 05:09:34;;;;;;;;;;;20.40;99.90;;;;;;5014436;28;19928;-73
2022/07/13 05:12:00;;;;;;;;;;;20.30;99.90;;;;;;5012964;28;19917;-73
2022/07/13 05:14:25;;;;;;;;;;;20.50;99.90;;;;;;5014107;28;19944;-73
2022/07/13 05:16:51;;;;;;;;;;;20.50;99.90;;;;;;5013510;28;19925;-72
2022/07/13 05:19:16;;;;;;;;;;;20.50;99.90;;;;;;5016159;28;19928;-72
2022/07/13 05:21:42;;;;;;;;;;;20.60;99.90;;;;;;5006507;28;19917;-73
2022/07/13 05:24:07;;;;;;;;;;;20.80;99.90;;;;;;5023314;28;19923;-73
2022/07/13 05:26:33;;;;;;;;;;;20.60;99.90;;;;;;5023246;28;19924;-72
2022/07/13 05:28:59;;;;;;;;;;;20.70;99.90;;;;;;5010902;28;19979;-72
2022/07/13 05:31:24;;;;;;;;;;;20.70;99.90;;;;;;5015506;28;20260;-72
2022/07/13 05:33:50;;;;;;;;;;;20.80;99.90;;;;;;5019038;28;19917;-72
2022/07/13 05:36:15;;;;;;;;;;;20.90;99.90;;;;;;5022838;28;20383;-73
2022/07/13 05:38:41;;;;;;;;;;;21.00;99.90;;;;;;5016112;28;20458;-72
2022/07/13 05:41:07;;;;;;;;;;;20.30;99.90;;;;;;5016905;28;19925;-72
2022/07/13 05:43:32;;;;;;;;;;;21.10;99.90;;;;;;5017008;28;19923;-72
2022/07/13 05:45:58;;;;;;;;;;;21.20;99.90;;;;;;5012600;28;20008;-72
2022/07/13 05:48:23;;;;;;;;;;;21.20;99.90;;;;;;5013864;28;19921;-72
2022/07/13 05:50:51;;;;;;;;;;;21.20;99.90;;;;;;5023242;28;19946;-73
2022/07/13 05:53:18;;;;;;;;;;;21.30;99.90;;;;;;5014632;28;20495;-73
2022/07/13 05:55:44;;;;;;;;;;;21.30;99.90;;;;;;5014521;28;19925;-72
2022/07/13 05:58:09;;;;;;;;;;;21.40;99.90;;;;;;5008225;28;19929;-73
2022/07/13 06:00:35;;;;;;;;;;;21.40;99.90;;;;;;5019102;28;19923;-72
2022/07/13 06:03:02;;;;;;;;;;;21.40;99.90;;;;;;5002574;28;19921;-72
2022/07/13 06:05:28;;;;;;;;;;;21.50;99.90;;;;;;5011657;28;19917;-73
2022/07/13 06:07:55;;;;;;;;;;;21.50;99.90;;;;;;5014986;28;19917;-73
2022/07/13 06:10:21;;;;;;;;;;;21.60;99.90;;;;;;5026671;28;19932;-72
2022/07/13 06:12:47;;;;;;;;;;;21.60;99.90;;;;;;5011146;28;19921;-73
2022/07/13 06:15:12;;;;;;;;;;;21.70;99.90;;;;;;5006922;28;19917;-73
2022/07/13 06:17:38;;;;;;;;;;;21.70;99.90;;;;;;5008350;28;19917;-73
2022/07/13 06:20:04;;;;;;;;;;;21.70;99.90;;;;;;5022986;28;19964;-73
2022/07/13 06:22:29;;;;;;;;;;;21.80;99.90;;;;;;5008885;28;19916;-73
2022/07/13 06:24:55;;;;;;;;;;;21.80;99.90;;;;;;5002467;28;19979;-73
2022/07/13 06:27:20;;;;;;;;;;;21.90;99.90;;;;;;5014906;28;19917;-73
2022/07/13 06:29:46;;;;;;;;;;;21.90;99.90;;;;;;5034394;28;19963;-73
2022/07/13 06:32:12;;;;;;;;;;;21.90;99.90;;;;;;5016266;28;20381;-73
2022/07/13 06:34:37;;;;;;;;;;;22.00;99.90;;;;;;5014365;28;19962;-73
2022/07/13 06:37:03;;;;;;;;;;;22.00;99.90;;;;;;5025806;28;20348;-73
2022/07/13 06:39:28;;;;;;;;;;;22.10;99.90;;;;;;5034496;28;19979;-72
2022/07/13 06:41:55;;;;;;;;;;;22.20;99.90;;;;;;5024762;28;19921;-72
2022/07/13 06:44:21;;;;;;;;;;;22.30;99.90;;;;;;5026628;28;19953;-72
2022/07/13 06:46:47;;;;;;;;;;;22.30;99.90;;;;;;5019062;28;19925;-72
2022/07/13 06:49:12;;;;;;;;;;;22.50;99.90;;;;;;5022431;28;19929;-72
2022/07/13 06:51:38;;;;;;;;;;;22.50;99.90;;;;;;5024314;28;19924;-73
2022/07/13 06:54:03;;;;;;;;;;;22.60;99.90;;;;;;5017031;28;19917;-72
2022/07/13 06:56:29;;;;;;;;;;;22.70;99.90;;;;;;5020004;28;19961;-72
2022/07/13 06:58:55;;;;;;;;;;;22.90;99.90;;;;;;5008120;28;19921;-73
2022/07/13 07:01:21;;;;;;;;;;;23.00;99.90;;;;;;5029827;28;19967;-72
2022/07/13 07:03:47;;;;;;;;;;;23.10;99.90;;;;;;5016185;28;19965;-71
2022/07/13 07:06:12;;;;;;;;;;;23.30;99.90;;;;;;5023726;28;19975;-73
2022/07/13 07:08:38;;;;;;;;;;;24.20;99.90;;;;;;5033210;28;19924;-73
2022/07/13 07:11:04;;;;;;;;;;;23.60;99.90;;;;;;5030484;28;19925;-73
2022/07/13 07:13:29;;;;;;;;;;;23.80;99.90;;;;;;5025677;28;19939;-73
2022/07/13 07:15:55;;;;;;;;;;;23.80;99.90;;;;;;5023587;28;19967;-73
2022/07/13 07:18:24;;;;;;;;;;;23.80;99.90;;;;;;5016191;28;19999;-72
2022/07/13 07:20:50;;;;;;;;;;;23.80;99.90;;;;;;4995245;28;19921;-73
2022/07/13 07:23:16;;;;;;;;;;;23.90;99.90;;;;;;5016922;28;19917;-73
2022/07/13 07:25:42;;;;;;;;;;;23.90;99.90;;;;;;5026463;28;19928;-72
2022/07/13 07:28:07;;;;;;;;;;;23.80;99.90;;;;;;5016603;28;19925;-72
2022/07/13 07:30:33;;;;;;;;;;;23.80;99.90;;;;;;5015831;28;19921;-73
2022/07/13 07:32:58;;;;;;;;;;;23.70;99.90;;;;;;5011893;28;19921;-73
2022/07/13 07:35:24;;;;;;;;;;;23.70;99.90;;;;;;5010060;28;19918;-73
2022/07/13 07:37:50;;;;;;;;;;;23.70;99.90;;;;;;5022849;28;19917;-73
2022/07/13 07:40:15;;;;;;;;;;;23.80;99.90;;;;;;5013842;28;19917;-73
2022/07/13 07:42:41;;;;;;;;;;;23.80;99.90;;;;;;5025343;28;19963;-72
2022/07/13 07:45:08;;;;;;;;;;;23.90;99.90;;;;;;5013213;28;19931;-73
2022/07/13 07:47:33;;;;;;;;;;;23.90;99.90;;;;;;5025383;28;19925;-73
2022/07/13 07:49:59;;;;;;;;;;;23.80;99.90;;;;;;5012686;28;20383;-73
2022/07/13 07:52:24;;;;;;;;;;;23.80;99.90;;;;;;5035964;28;19969;-73
2022/07/13 07:54:50;;;;;;;;;;;23.80;99.90;;;;;;5016219;28;19917;-73
2022/07/13 07:57:16;;;;;;;;;;;23.90;99.90;;;;;;5024129;28;20048;-73
2022/07/13 07:59:41;;;;;;;;;;;24.10;99.90;;;;;;5016292;28;19921;-72
2022/07/13 08:02:08;;;;;;;;;;;24.20;99.90;;;;;;5030033;28;19921;-73
2022/07/13 08:04:33;;;;;;;;;;;24.30;99.90;;;;;;5030022;28;19955;-72
2022/07/13 08:07:00;;;;;;;;;;;24.40;99.90;;;;;;4998895;28;20375;-73
2022/07/13 08:09:25;;;;;;;;;;;24.50;99.90;;;;;;5024314;28;19921;-73
2022/07/13 08:11:51;;;;;;;;;;;24.70;99.90;;;;;;5017455;28;19924;-73
2022/07/13 08:14:17;;;;;;;;;;;24.80;99.90;;;;;;5037230;28;19921;-73
2022/07/13 08:16:43;;;;;;;;;;;25.00;99.90;;;;;;5027718;28;20016;-72
2022/07/13 08:19:09;;;;;;;;;;;25.10;99.90;;;;;;5029731;28;19924;-73
2022/07/13 08:21:35;;;;;;;;;;;25.30;99.90;;;;;;5031492;28;19917;-73
2022/07/13 08:24:00;;;;;;;;;;;25.40;99.90;;;;;;5010226;28;19943;-73
2022/07/13 08:26:29;;;;;;;;;;;25.50;99.90;;;;;;5033379;28;20008;-74
2022/07/13 08:28:56;;;;;;;;;;;25.60;99.90;;;;;;5027711;28;20528;-72
2022/07/13 08:31:22;;;;;;;;;;;25.60;99.90;;;;;;5031443;28;20415;-73
2022/07/13 08:39:22;;;;;;;;;;;25.80;99.90;;;;;;5012711;28;19939;-72
2022/07/13 08:41:47;;;;;;;;;;;25.90;99.90;;;;;;5030887;28;20347;-73
2022/07/13 08:44:13;;;;;;;;;;;26.10;99.90;;;;;;4996003;28;19961;-73
2022/07/13 08:46:39;;;;;;;;;;;26.10;99.90;;;;;;5012940;28;19920;-73
2022/07/13 08:49:06;;;;;;;;;;;26.20;99.90;;;;;;5013315;28;19917;-73
2022/07/13 08:51:34;;;;;;;;;;;26.40;99.90;;;;;;5015627;28;20351;-72
2022/07/13 08:54:01;;;;;;;;;;;26.40;99.90;;;;;;5010321;28;20360;-73
2022/07/13 08:56:27;;;;;;;;;;;26.40;99.90;;;;;;5015308;28;20384;-73
2022/07/13 08:58:53;;;;;;;;;;;26.50;99.90;;;;;;5011927;28;19979;-73
2022/07/13 09:01:19;;;;;;;;;;;26.50;99.90;;;;;;5011091;28;19925;-73
2022/07/13 09:03:46;;;;;;;;;;;26.70;99.90;;;;;;5011343;28;19931;-73
2022/07/13 09:06:30;;;;;;;;;;;26.90;99.90;;;;;;5010060;28;19917;-73
2022/07/13 09:08:56;;;;;;;;;;;27.10;99.90;;;;;;5000468;28;20004;-73
2022/07/13 09:11:23;;;;;;;;;;;27.20;99.90;;;;;;5003467;28;19922;-72
2022/07/13 09:13:48;;;;;;;;;;;27.30;99.90;;;;;;4998065;28;20276;-73
2022/07/13 09:16:32;;;;;;;;;;;27.10;99.90;;;;;;5013875;28;19925;-72
2022/07/13 09:18:59;;;;;;;;;;;27.10;99.90;;;;;;5019886;28;20341;-72
2022/07/13 09:21:25;;;;;;;;;;;27.20;99.90;;;;;;5000452;28;19917;-73
2022/07/13 09:23:55;;;;;;;;;;;27.30;99.90;;;;;;5012163;28;19917;-73
2022/07/13 09:26:23;;;;;;;;;;;27.50;99.90;;;;;;5009957;28;20388;-73
2022/07/13 09:28:50;;;;;;;;;;;27.60;99.90;;;;;;5009743;28;20299;-73
2022/07/13 09:31:16;;;;;;;;;;;27.80;99.90;;;;;;5011053;28;19929;-72
2022/07/13 09:33:45;;;;;;;;;;;27.90;99.90;;;;;;5008235;28;20331;-73
2022/07/13 09:36:15;;;;;;;;;;;28.00;99.90;;;;;;5006864;28;19962;-73
2022/07/13 09:38:42;;;;;;;;;;;27.80;99.90;;;;;;5012071;28;19917;-73
2022/07/13 09:41:22;;;;;;;;;;;27.90;99.90;;;;;;5031016;28;20011;-73
2022/07/13 09:46:56;;;;;;;;;;;27.90;99.90;;;;;;5011337;28;19991;-73
2022/07/13 09:49:29;;;;;;;;;;;28.00;99.90;;;;;;5020843;28;19921;-73
2022/07/13 09:51:57;;;;;;;;;;;28.10;99.90;;;;;;4995080;28;20440;-73
2022/07/13 09:54:24;;;;;;;;;;;28.10;99.90;;;;;;5015754;28;20284;-73
2022/07/13 09:56:50;;;;;;;;;;;28.00;99.90;;;;;;5015270;28;20280;-73
2022/07/13 09:59:16;;;;;;;;;;;28.10;99.90;;;;;;5013068;28;20310;-73
2022/07/13 10:01:43;;;;;;;;;;;28.00;99.40;;;;;;5016313;28;20019;-73
2022/07/13 10:04:08;;;;;;;;;;;28.20;99.90;;;;;;5017817;28;20519;-73
2022/07/13 10:06:34;;;;;;;;;;;28.40;99.90;;;;;;5011643;28;19920;-73
2022/07/13 10:09:00;;;;;;;;;;;28.50;99.90;;;;;;5009807;28;19925;-73
2022/07/13 10:11:26;;;;;;;;;;;28.70;99.90;;;;;;5005744;28;19980;-73
2022/07/13 10:13:52;;;;;;;;;;;28.90;99.90;;;;;;5009889;28;19927;-73
2022/07/13 10:16:17;;;;;;;;;;;29.00;99.70;;;;;;4998420;28;20383;-73
2022/07/13 10:18:43;;;;;;;;;;;29.30;99.60;;;;;;5013810;28;20035;-73
2022/07/13 10:21:12;;;;;;;;;;;29.40;96.60;;;;;;5006586;28;19949;-73
2022/07/13 10:23:38;;;;;;;;;;;29.60;97.10;;;;;;5010996;28;19952;-73
2022/07/13 10:26:03;;;;;;;;;;;29.70;96.80;;;;;;5010846;28;19924;-73
2022/07/13 10:28:29;;;;;;;;;;;29.80;94.20;;;;;;5012496;28;19924;-73
2022/07/13 10:30:55;;;;;;;;;;;29.90;93.30;;;;;;5006489;28;20497;-73
2022/07/13 10:33:27;;;;;;;;;;;29.90;93.60;;;;;;5023446;28;19924;-73
2022/07/13 10:35:58;;;;;;;;;;;29.70;92.70;;;;;;5003535;28;19925;-74
2022/07/13 10:38:27;;;;;;;;;;;29.70;91.80;;;;;;5005785;28;19954;-73
2022/07/13 10:41:11;;;;;;;;;;;29.80;91.80;;;;;;5002137;28;20100;-73
2022/07/13 10:43:37;;;;;;;;;;;29.60;91.40;;;;;;5030500;28;20009;-73
2022/07/13 10:46:02;;;;;;;;;;;29.50;91.60;;;;;;5029635;28;20346;-73
2022/07/13 10:48:30;;;;;;;;;;;29.40;88.40;;;;;;5012448;28;20536;-73
2022/07/13 10:50:58;;;;;;;;;;;29.10;91.00;;;;;;5004357;28;20017;-73
2022/07/13 10:53:39;;;;;;;;;;;29.00;92.00;;;;;;5007360;28;19955;-75
2022/07/13 10:56:25;;;;;;;;;;;29.20;92.70;;;;;;5009777;28;19959;-73
2022/07/13 10:58:51;;;;;;;;;;;29.20;88.50;;;;;;5009642;28;19924;-72
2022/07/13 11:01:32;;;;;;;;;;;29.40;91.50;;;;;;5009867;28;20403;-73
2022/07/13 11:03:59;;;;;;;;;;;29.80;91.40;;;;;;5011609;28;19920;-73
2022/07/13 11:06:24;;;;;;;;;;;30.00;90.30;;;;;;5011776;28;19917;-73
2022/07/13 11:09:09;;;;;;;;;;;30.40;85.90;;;;;;5008198;28;20462;-72
2022/07/13 11:11:42;;;;;;;;;;;30.60;76.30;;;;;;5006356;28;20563;-73
2022/07/13 11:14:26;;;;;;;;;;;30.80;77.00;;;;;;5017716;28;20055;-73
2022/07/13 11:16:52;;;;;;;;;;;30.80;74.10;;;;;;5013342;28;19963;-73
2022/07/13 11:19:37;;;;;;;;;;;30.80;73.30;;;;;;5016003;28;19922;-73
2022/07/13 11:22:07;;;;;;;;;;;30.80;75.00;;;;;;5026081;28;19917;-73
2022/07/13 11:27:26;;;;;;;;;;;30.70;73.30;;;;;;5015603;28;19994;-73
2022/07/13 11:29:55;;;;;;;;;;;31.00;71.00;;;;;;5014313;28;19921;-73
2022/07/13 11:32:21;;;;;;;;;;;31.20;63.70;;;;;;5019103;28;19964;-73
2022/07/13 11:34:47;;;;;;;;;;;31.10;68.00;;;;;;5013690;28;20421;-73
2022/07/13 11:37:12;;;;;;;;;;;31.20;63.20;;;;;;5014788;28;19921;-73
2022/07/13 11:39:38;;;;;;;;;;;31.40;66.90;;;;;;5013385;28;20280;-73
2022/07/13 11:42:07;;;;;;;;;;;31.40;61.80;;;;;;5026959;28;19955;-72
2022/07/13 11:44:34;;;;;;;;;;;31.40;64.80;;;;;;5011822;28;19916;-73
2022/07/13 11:47:04;;;;;;;;;;;31.50;64.30;;;;;;5012453;28;19924;-73
2022/07/13 11:49:41;;;;;;;;;;;31.80;62.60;;;;;;5014450;28;19921;-73
2022/07/13 11:52:07;;;;;;;;;;;32.10;62.20;;;;;;5010641;28;19920;-73
2022/07/13 11:54:33;;;;;;;;;;;32.20;60.60;;;;;;5012569;28;20390;-73
2022/07/13 11:56:59;;;;;;;;;;;31.80;60.90;;;;;;5015275;28;19975;-72
2022/07/13 11:59:42;;;;;;;;;;;31.80;61.80;;;;;;5015624;28;20003;-73
2022/07/13 12:02:09;;;;;;;;;;;31.70;59.30;;;;;;5015317;28;19999;-72
2022/07/13 12:04:39;;;;;;;;;;;31.50;60.30;;;;;;5016369;28;20388;-72
2022/07/13 12:07:08;;;;;;;;;;;31.40;60.40;;;;;;5028197;28;19979;-73
2022/07/13 12:09:33;;;;;;;;;;;31.50;60.40;;;;;;5010945;28;19929;-73
2022/07/13 12:11:59;;;;;;;;;;;31.30;60.30;;;;;;5025476;28;19917;-72
2022/07/13 12:14:25;;;;;;;;;;;31.20;60.60;;;;;;5008847;28;19917;-72
2022/07/13 12:16:50;;;;;;;;;;;31.20;61.40;;;;;;5011417;28;20401;-72
2022/07/13 12:19:18;;;;;;;;;;;31.20;61.10;;;;;;4997315;28;19917;-72
2022/07/13 12:21:55;;;;;;;;;;;31.10;62.60;;;;;;4999700;28;19920;-72
2022/07/13 12:24:21;;;;;;;;;;;31.00;63.90;;;;;;5012699;28;20011;-71
2022/07/13 12:26:50;;;;;;;;;;;31.30;62.50;;;;;;5017147;28;20015;-72
2022/07/13 12:29:29;;;;;;;;;;;31.60;58.50;;;;;;5010587;28;19921;-73
2022/07/13 12:31:55;;;;;;;;;;;31.70;60.90;;;;;;5012211;28;19924;-73
2022/07/13 12:34:20;;;;;;;;;;;32.00;60.50;;;;;;5029446;28;20527;-72
2022/07/13 12:36:48;;;;;;;;;;;31.90;57.60;;;;;;5014651;28;19925;-73
2022/07/13 12:39:13;;;;;;;;;;;32.10;60.60;;;;;;5022968;28;19918;-73
2022/07/13 12:41:42;;;;;;;;;;;32.30;59.60;;;;;;5008045;28;19925;-72
2022/07/13 12:44:08;;;;;;;;;;;32.20;58.30;;;;;;5014596;28;19921;-72
2022/07/13 12:47:03;;;;;;;;;;;32.10;57.70;;;;;;5006605;28;19933;-72
2022/07/13 12:49:36;;;;;;;;;;;32.20;61.60;;;;;;4997026;28;19929;-72
2022/07/13 12:52:03;;;;;;;;;;;32.30;57.80;;;;;;5012037;28;19917;-72
2022/07/13 12:54:41;;;;;;;;;;;32.10;60.60;;;;;;5009041;28;20004;-73
2022/07/13 12:57:09;;;;;;;;;;;32.00;60.70;;;;;;5009112;28;20291;-72
2022/07/13 12:59:35;;;;;;;;;;;32.10;59.70;;;;;;5010294;28;19931;-72
2022/07/13 13:02:00;;;;;;;;;;;32.10;58.30;;;;;;5011850;28;20016;-72
2022/07/13 13:04:26;;;;;;;;;;;32.20;60.10;;;;;;5018922;28;19921;-72
2022/07/13 13:06:52;;;;;;;;;;;32.10;59.40;;;;;;5024244;28;19924;-72
2022/07/13 13:09:18;;;;;;;;;;;31.90;57.50;;;;;;5018867;28;19916;-72
2022/07/13 13:11:44;;;;;;;;;;;31.70;59.70;;;;;;5016416;28;19932;-72
2022/07/13 13:14:10;;;;;;;;;;;31.80;61.10;;;;;;5005418;28;19917;-73
2022/07/13 13:16:36;;;;;;;;;;;31.90;58.20;;;;;;5011942;28;19928;-72
2022/07/13 13:19:01;;;;;;;;;;;32.00;60.90;;;;;;5008755;28;19924;-71
2022/07/13 13:21:27;;;;;;;;;;;32.20;62.20;;;;;;5006478;28;19920;-72
2022/07/13 13:23:53;;;;;;;;;;;32.50;61.20;;;;;;5009576;28;20294;-72
2022/07/13 13:26:19;;;;;;;;;;;32.60;60.90;;;;;;5007975;28;19971;-72
2022/07/13 13:31:29;;;;;;;;;;;32.40;61.20;;;;;;5017838;28;19928;-72
2022/07/13 13:33:54;;;;;;;;;;;32.30;60.60;;;;;;5018676;28;19917;-72
2022/07/13 13:36:20;;;;;;;;;;;32.40;61.70;;;;;;5003045;28;19979;-72
2022/07/13 13:38:45;;;;;;;;;;;32.30;61.90;;;;;;5031756;28;19921;-72
2022/07/13 13:41:11;;;;;;;;;;;32.00;60.80;;;;;;5019711;28;20016;-72
2022/07/13 13:43:39;;;;;;;;;;;31.70;62.20;;;;;;5022829;28;19936;-72
2022/07/13 13:46:04;;;;;;;;;;;31.60;64.70;;;;;;5009010;28;19968;-72
2022/07/13 13:48:30;;;;;;;;;;;31.60;62.00;;;;;;5014097;28;19971;-72
2022/07/13 13:50:56;;;;;;;;;;;31.50;62.10;;;;;;5018753;28;19960;-72
2022/07/13 13:53:21;;;;;;;;;;;31.20;63.00;;;;;;5013296;28;19916;-71
2022/07/13 13:55:47;;;;;;;;;;;31.00;66.10;;;;;;5021510;28;19928;-71
2022/07/13 13:58:12;;;;;;;;;;;31.20;63.90;;;;;;5030646;28;19972;-72
2022/07/13 14:00:38;;;;;;;;;;;31.20;63.40;;;;;;5028997;28;20066;-72
2022/07/13 14:03:04;;;;;;;;;;;31.20;64.10;;;;;;5013588;28;19924;-71
2022/07/13 14:05:30;;;;;;;;;;;31.30;64.60;;;;;;5007268;28;19976;-71
2022/07/13 14:07:56;;;;;;;;;;;31.40;63.00;;;;;;5016642;28;20007;-72
2022/07/13 14:10:22;;;;;;;;;;;31.70;60.60;;;;;;5008688;28;19921;-71
2022/07/13 14:12:48;;;;;;;;;;;31.70;62.90;;;;;;5010731;28;19921;-73
2022/07/13 14:15:13;;;;;;;;;;;31.30;61.00;;;;;;5012873;28;19917;-72
2022/07/13 14:17:39;;;;;;;;;;;31.30;62.60;;;;;;5019160;28;19931;-72
2022/07/13 14:20:05;;;;;;;;;;;31.40;61.80;;;;;;4999976;28;19917;-72
2022/07/13 14:22:31;;;;;;;;;;;31.30;62.60;;;;;;5012832;28;19917;-72
2022/07/13 14:24:59;;;;;;;;;;;31.20;60.70;;;;;;5024458;28;19921;-72
2022/07/13 14:27:25;;;;;;;;;;;31.00;62.10;;;;;;5006267;28;19933;-72